createdAt,value
2018-10-11T00:01:48.815Z,22.80
2018-10-11T00:04:19.087Z,24.67
2018-10-11T00:06:49.993Z,21.23
2018-10-11T00:09:22.510Z,25.10
2018-10-11T00:11:59.249Z,25.93
2018-10-11T00:14:33.740Z,23.50
2018-10-11T00:17:05.162Z,25.37
2018-10-11T00:19:34.747Z,26.03
2018-10-11T00:22:07.720Z,25.03
2018-10-11T00:24:45.903Z,22.60
2018-10-11T00:27:17.196Z,25.40
2018-10-11T00:29:51.237Z,27.20
2018-10-11T00:32:25.130Z,24.33
2018-10-11T00:37:55.029Z,22.67
2018-10-11T00:40:25.071Z,25.40
2018-10-11T00:42:57.847Z,26.60
2018-10-11T00:45:31.323Z,31.87
2018-10-11T00:48:04.259Z,24.37
2018-10-11T00:50:35.408Z,25.67
2018-10-11T00:53:10.849Z,23.87
2018-10-11T00:55:43.458Z,28.17
2018-10-11T00:58:17.609Z,23.00
2018-10-11T01:00:50.111Z,28.33
2018-10-11T01:03:33.217Z,25.83
2018-10-11T01:06:05.351Z,25.83
2018-10-11T01:08:37.873Z,25.73
2018-10-11T01:11:09.511Z,27.67
2018-10-11T01:13:47.088Z,29.90
2018-10-11T01:16:22.929Z,26.67
2018-10-11T01:18:54.809Z,24.80
2018-10-11T01:21:28.612Z,25.50
2018-10-11T01:24:02.217Z,27.33
2018-10-11T01:26:36.281Z,25.17
2018-10-11T01:29:08.650Z,29.03
2018-10-11T01:31:45.006Z,26.87
2018-10-11T01:41:07.110Z,27.13
2018-10-11T01:43:42.808Z,28.53
2018-10-11T01:46:15.655Z,26.63
2018-10-11T01:48:49.921Z,28.30
2018-10-11T01:51:21.500Z,28.10
2018-10-11T01:53:52.604Z,29.67
2018-10-11T01:56:29.297Z,29.63
2018-10-11T01:59:07.524Z,30.67
2018-10-11T02:01:39.204Z,24.40
2018-10-11T02:04:09.925Z,26.33
2018-10-11T02:06:40.973Z,27.17
2018-10-11T02:09:13.105Z,24.73
2018-10-11T02:11:45.218Z,23.40
2018-10-11T02:14:19.204Z,26.10
2018-10-11T02:16:53.218Z,23.27
2018-10-11T02:19:24.662Z,25.63
2018-10-11T02:21:57.287Z,27.87
2018-10-11T02:24:36.883Z,25.57
2018-10-11T02:27:10.971Z,25.30
2018-10-11T02:29:40.801Z,26.43
2018-10-11T02:32:11.215Z,28.00
2018-10-11T02:34:40.223Z,24.47
2018-10-11T02:37:12.087Z,27.07
2018-10-11T02:39:42.314Z,25.90
2018-10-11T02:42:18.204Z,26.97
2018-10-11T02:44:53.935Z,23.97
2018-10-11T02:47:24.870Z,27.23
2018-10-11T02:50:03.088Z,27.17
2018-10-11T02:52:49.590Z,29.30
2018-10-11T02:55:27.478Z,28.67
2018-10-11T02:58:10.578Z,28.63
2018-10-11T03:00:48.646Z,25.43
2018-10-11T03:03:27.001Z,25.50
2018-10-11T03:06:00.984Z,26.93
2018-10-11T03:08:37.577Z,22.60
2018-10-11T03:11:08.546Z,26.90
2018-10-11T03:13:39.306Z,29.63
2018-10-11T03:16:15.085Z,25.03
2018-10-11T03:18:50.175Z,27.33
2018-10-11T03:21:23.117Z,28.33
2018-10-11T03:23:57.514Z,27.00
2018-10-11T03:26:30.840Z,32.00
2018-10-11T03:29:03.938Z,27.43
2018-10-11T03:31:37.444Z,30.60
2018-10-11T03:34:17.780Z,31.80
2018-10-11T03:36:49.325Z,30.80
2018-10-11T03:39:23.010Z,30.23
2018-10-11T03:41:59.832Z,31.33
2018-10-11T03:44:30.900Z,29.57
2018-10-11T03:47:04.103Z,30.33
2018-10-11T03:49:38.815Z,33.47
2018-10-11T03:52:09.073Z,31.93
2018-10-11T03:54:46.161Z,35.93
2018-10-11T03:57:21.186Z,33.10
2018-10-11T03:59:55.088Z,30.97
2018-10-11T04:02:28.720Z,30.83
2018-10-11T04:05:00.891Z,28.90
2018-10-11T04:07:30.876Z,33.27
2018-10-11T04:10:03.075Z,31.70
2018-10-11T04:12:40.529Z,27.67
2018-10-11T04:15:12.957Z,30.30
2018-10-11T04:17:43.072Z,31.27
2018-10-11T04:20:13.853Z,29.77
2018-10-11T04:22:42.825Z,33.67
2018-10-11T04:25:14.116Z,29.57
2018-10-11T04:27:44.883Z,35.80
2018-10-11T04:30:16.847Z,30.90
2018-10-11T04:32:49.726Z,33.13
2018-10-11T04:42:14.529Z,30.17
2018-10-11T04:44:49.223Z,29.37
2018-10-11T04:47:23.017Z,24.37
2018-10-11T04:49:53.869Z,28.63
2018-10-11T04:52:32.827Z,28.90
2018-10-11T04:55:04.156Z,27.80
2018-10-11T04:57:35.756Z,32.97
2018-10-11T05:00:08.314Z,31.37
2018-10-11T05:02:38.683Z,32.37
2018-10-11T05:05:10.102Z,28.47
2018-10-11T05:07:42.019Z,31.63
2018-10-11T05:10:15.639Z,27.57
2018-10-11T05:12:46.744Z,25.17
2018-10-11T05:15:19.717Z,30.50
2018-10-11T05:17:58.273Z,27.60
2018-10-11T05:20:31.444Z,36.93
2018-10-11T05:23:04.544Z,27.70
2018-10-11T05:25:37.108Z,28.63
2018-10-11T05:28:07.513Z,26.80
2018-10-11T05:30:47.821Z,25.80
2018-10-11T05:33:22.117Z,26.33
2018-10-11T05:35:52.746Z,26.40
2018-10-11T05:38:26.297Z,28.27
2018-10-11T05:40:58.468Z,26.63
2018-10-11T05:43:35.566Z,26.37
2018-10-11T05:49:23.377Z,27.37
2018-10-11T05:51:55.936Z,29.70
2018-10-11T05:54:28.143Z,28.70
2018-10-11T05:57:00.372Z,31.27
2018-10-11T05:59:36.642Z,38.70
2018-10-11T06:02:12.071Z,31.10
2018-10-11T06:04:45.072Z,28.97
2018-10-11T06:07:19.871Z,32.90
2018-10-11T06:09:51.296Z,33.37
2018-10-11T06:12:24.440Z,27.47
2018-10-11T06:14:58.172Z,22.67
2018-10-11T06:17:35.941Z,24.70
2018-10-11T06:20:07.814Z,24.37
2018-10-11T06:22:44.244Z,26.47
2018-10-11T06:25:20.596Z,29.77
2018-10-11T06:27:54.416Z,28.23
2018-10-11T06:30:28.145Z,24.70
2018-10-11T06:33:05.780Z,28.47
2018-10-11T06:35:37.186Z,32.07
2018-10-11T06:38:10.884Z,29.10
2018-10-11T06:40:46.485Z,22.93
2018-10-11T06:43:18.137Z,26.53
2018-10-11T06:45:50.080Z,27.83
2018-10-11T06:48:20.642Z,26.50
2018-10-11T06:50:56.617Z,29.43
2018-10-11T06:53:28.568Z,32.53
2018-10-11T06:56:04.354Z,31.03
2018-10-11T06:58:36.039Z,29.60
2018-10-11T07:01:11.593Z,28.67
2018-10-11T07:03:42.185Z,35.37
2018-10-11T07:06:19.961Z,28.43
2018-10-11T07:08:57.475Z,26.73
2018-10-11T07:11:32.693Z,26.23
2018-10-11T07:14:03.969Z,31.73
2018-10-11T07:16:36.417Z,26.50
2018-10-11T07:19:09.245Z,30.17
2018-10-11T07:21:44.921Z,30.17
2018-10-11T07:24:16.457Z,25.13
2018-10-11T07:26:49.989Z,33.23
2018-10-11T07:29:20.824Z,24.03
2018-10-11T07:31:55.460Z,27.77
2018-10-11T07:34:30.161Z,27.63
2018-10-11T07:37:03.831Z,26.73
2018-10-11T07:39:35.261Z,24.90
2018-10-11T07:42:08.100Z,24.77
2018-10-11T07:44:46.028Z,23.70
2018-10-11T07:49:55.812Z,32.73
2018-10-11T07:52:26.262Z,26.70
2018-10-11T07:54:58.272Z,23.13
2018-10-11T07:57:33.577Z,24.57
2018-10-11T08:00:05.773Z,27.00
2018-10-11T08:02:37.752Z,28.17
2018-10-11T08:05:16.959Z,23.07
2018-10-11T08:07:50.474Z,26.33
2018-10-11T08:10:28.550Z,24.60
2018-10-11T08:13:08.437Z,23.30
2018-10-11T08:15:41.735Z,23.40
2018-10-11T08:18:15.632Z,19.50
2018-10-11T08:20:47.384Z,20.60
2018-10-11T08:23:18.311Z,23.87
2018-10-11T08:25:57.054Z,24.50
2018-10-11T08:28:35.243Z,24.80
2018-10-11T08:31:10.835Z,24.53
2018-10-11T08:33:43.943Z,24.10
2018-10-11T08:36:18.754Z,22.10
2018-10-11T08:38:52.087Z,24.93
2018-10-11T08:41:22.714Z,24.80
2018-10-11T08:43:54.862Z,24.50
2018-10-11T08:46:29.449Z,24.60
2018-10-11T08:49:03.074Z,27.57
2018-10-11T08:51:38.437Z,23.13
2018-10-11T08:54:15.502Z,24.43
2018-10-11T08:56:48.243Z,30.27
2018-10-11T09:00:23.253Z,24.00
2018-10-11T09:02:56.677Z,25.93
2018-10-11T09:05:29.082Z,24.30
2018-10-11T09:08:02.398Z,26.00
2018-10-11T09:10:38.346Z,24.47
2018-10-11T09:13:13.297Z,27.53
2018-10-11T09:15:47.004Z,27.20
2018-10-11T09:18:17.893Z,26.10
2018-10-11T09:20:49.695Z,22.23
2018-10-11T09:23:21.108Z,25.67
2018-10-11T09:25:53.083Z,23.90
2018-10-11T09:28:29.284Z,23.60
2018-10-11T09:31:01.508Z,28.03
2018-10-11T09:33:33.856Z,26.93
2018-10-11T09:36:07.251Z,25.10
2018-10-11T09:38:42.536Z,25.80
2018-10-11T09:41:15.404Z,29.83
2018-10-11T09:43:47.724Z,22.53
2018-10-11T09:46:23.288Z,24.57
2018-10-11T09:48:55.880Z,28.10
2018-10-11T09:51:27.532Z,23.90
2018-10-11T09:54:01.426Z,21.97
2018-10-11T09:56:44.528Z,27.25
2018-10-11T09:59:13.774Z,25.93
2018-10-11T10:01:49.091Z,22.73
2018-10-11T10:04:25.343Z,26.13
2018-10-11T10:09:39.275Z,26.63
2018-10-11T10:12:17.368Z,26.03
2018-10-11T10:14:49.867Z,27.03
2018-10-11T10:17:22.897Z,25.63
2018-10-11T10:19:53.558Z,30.40
2018-10-11T10:22:24.924Z,32.57
2018-10-11T10:24:56.225Z,23.97
2018-10-11T10:27:29.835Z,24.40
2018-10-11T10:30:01.707Z,26.67
2018-10-11T10:32:37.104Z,27.97
2018-10-11T10:35:10.570Z,24.93
2018-10-11T10:37:45.141Z,29.10
2018-10-11T10:40:16.954Z,28.80
2018-10-11T10:42:48.365Z,27.40
2018-10-11T10:45:20.264Z,31.03
2018-10-11T10:47:53.868Z,26.80
2018-10-11T11:07:49.439Z,28.53
2018-10-11T11:10:18.390Z,24.20
2018-10-11T11:12:48.575Z,31.57
2018-10-11T11:15:17.427Z,32.10
2018-10-11T11:17:46.325Z,26.07
2018-10-11T11:20:15.340Z,31.17
2018-10-11T11:22:44.268Z,28.83
2018-10-11T11:25:13.224Z,25.87
2018-10-11T11:27:42.217Z,29.53
2018-10-11T11:30:11.108Z,25.23
2018-10-11T11:32:40.176Z,25.57
2018-10-11T11:35:10.393Z,24.53
2018-10-11T11:37:39.285Z,27.40
2018-10-11T11:40:09.605Z,26.23
2018-10-11T11:42:38.520Z,26.97
2018-10-11T11:45:07.575Z,23.10
2018-10-11T11:47:37.739Z,26.67
2018-10-11T11:50:06.704Z,24.73
2018-10-11T11:52:35.624Z,26.30
2018-10-11T11:55:04.553Z,27.40
2018-10-11T11:57:33.411Z,24.33
2018-10-11T12:00:02.312Z,30.43
2018-10-11T12:02:31.246Z,26.27
2018-10-11T12:05:00.422Z,23.77
2018-10-11T12:07:29.358Z,24.73
2018-10-11T12:09:59.539Z,26.37
2018-10-11T12:13:10.086Z,24.97
2018-10-11T12:15:41.423Z,25.10
2018-10-11T12:18:10.752Z,23.87
2018-10-11T12:20:40.841Z,25.40
2018-10-11T12:23:10.804Z,24.70
2018-10-11T12:25:39.878Z,25.97
2018-10-11T12:28:10.095Z,21.43
2018-10-11T12:30:38.983Z,28.77
2018-10-11T12:33:07.820Z,23.60
2018-10-11T12:35:36.838Z,29.33
2018-10-11T12:38:05.762Z,25.47
2018-10-11T12:40:34.674Z,25.97
2018-10-11T12:43:10.239Z,32.23
2018-10-11T12:45:39.917Z,27.80
2018-10-11T12:48:08.819Z,26.43
2018-10-11T12:50:38.958Z,25.23
2018-10-11T12:53:08.363Z,26.20
2018-10-11T12:55:37.292Z,26.63
2018-10-11T12:58:09.181Z,25.10
2018-10-11T13:00:38.007Z,27.70
2018-10-11T13:03:06.921Z,30.20
2018-10-11T13:05:35.979Z,24.67
2018-10-11T13:08:05.022Z,25.73
2018-10-11T13:10:33.984Z,27.30
2018-10-11T13:13:03.876Z,26.47
2018-10-11T13:15:32.083Z,28.07
2018-10-11T13:18:00.953Z,25.73
2018-10-11T13:20:29.916Z,26.50
2018-10-11T13:22:58.817Z,26.33
2018-10-11T13:25:27.707Z,24.80
2018-10-11T13:27:56.666Z,27.40
2018-10-11T13:30:25.628Z,28.10
2018-10-11T13:32:54.571Z,25.27
2018-10-11T13:35:24.749Z,25.33
2018-10-11T13:37:53.675Z,33.27
2018-10-11T13:40:22.690Z,28.50
2018-10-11T13:42:51.574Z,25.60
2018-10-11T13:45:20.483Z,22.77
2018-10-11T13:47:49.311Z,30.80
2018-10-11T13:50:18.190Z,23.30
2018-10-11T13:52:47.294Z,25.97
2018-10-11T13:55:16.257Z,25.67
2018-10-11T13:57:45.287Z,25.27
2018-10-11T14:00:14.426Z,31.67
2018-10-11T14:02:43.450Z,25.40
2018-10-11T14:05:12.309Z,27.60
2018-10-11T14:07:41.272Z,27.27
2018-10-11T14:10:10.231Z,23.10
2018-10-11T14:12:39.196Z,24.50
2018-10-11T14:15:10.102Z,25.90
2018-10-11T14:17:39.094Z,26.33
2018-10-11T14:20:08.007Z,24.97
2018-10-11T14:22:38.271Z,28.33
2018-10-11T14:25:08.178Z,30.37
2018-10-11T14:27:37.148Z,27.90
2018-10-11T14:30:07.562Z,25.87
2018-10-11T14:32:36.799Z,26.03
2018-10-11T14:35:09.571Z,26.13
2018-10-11T14:37:41.592Z,27.77
2018-10-11T14:40:12.910Z,30.00
2018-10-11T14:42:43.703Z,27.47
2018-10-11T14:45:15.961Z,29.93
2018-10-11T14:47:45.496Z,28.33
2018-10-11T14:50:16.108Z,28.07
2018-10-11T14:52:47.644Z,27.23
2018-10-11T14:55:17.862Z,27.30
2018-10-11T14:57:47.111Z,32.40
2018-10-11T15:00:16.733Z,23.97
2018-10-11T15:02:46.087Z,29.20
2018-10-11T15:05:17.327Z,28.33
2018-10-11T15:07:46.787Z,31.87
2018-10-11T15:10:17.630Z,30.90
2018-10-11T15:12:47.722Z,25.10
2018-10-11T15:15:18.149Z,31.97
2018-10-11T15:17:48.502Z,28.87
2018-10-11T15:20:17.941Z,33.77
2018-10-11T15:22:48.196Z,28.30
2018-10-11T15:25:18.607Z,26.70
2018-10-11T15:27:47.804Z,29.13
2018-10-11T15:30:18.314Z,27.33
2018-10-11T15:32:49.838Z,28.70
2018-10-11T15:35:20.135Z,27.70
2018-10-11T15:37:49.485Z,32.40
2018-10-11T15:40:19.525Z,25.57
2018-10-11T15:42:49.110Z,29.97
2018-10-11T15:45:19.173Z,29.53
2018-10-11T15:47:49.072Z,25.77
2018-10-11T15:50:22.949Z,31.53
2018-10-11T15:52:53.420Z,29.70
2018-10-11T15:55:23.693Z,28.30
2018-10-11T15:57:52.942Z,29.33
2018-10-11T16:00:22.233Z,28.60
2018-10-11T16:02:51.601Z,25.80
2018-10-11T16:05:22.137Z,29.67
2018-10-11T16:07:53.602Z,28.53
2018-10-11T16:10:25.515Z,29.90
2018-10-11T16:12:54.876Z,28.93
2018-10-11T16:15:26.288Z,25.50
2018-10-11T16:17:56.725Z,26.90
2018-10-11T16:20:25.975Z,31.23
2018-10-11T16:22:56.006Z,28.13
2018-10-11T16:25:28.649Z,30.93
2018-10-11T16:27:57.896Z,26.47
2018-10-11T16:30:28.256Z,32.33
2018-10-11T16:32:57.592Z,30.10
2018-10-11T16:35:27.595Z,31.23
2018-10-11T16:37:56.968Z,29.13
2018-10-11T16:40:26.770Z,27.87
2018-10-11T16:42:56.155Z,26.60
2018-10-11T16:45:26.128Z,27.77
2018-10-11T16:47:56.765Z,26.77
2018-10-11T16:50:29.916Z,27.27
2018-10-11T16:53:01.273Z,26.97
2018-10-11T16:55:31.730Z,27.20
2018-10-11T16:58:03.219Z,27.10
2018-10-11T17:00:33.530Z,26.87
2018-10-11T17:03:03.359Z,30.30
2018-10-11T17:05:39.086Z,28.90
2018-10-11T17:08:08.483Z,25.00
2018-10-11T17:10:37.737Z,29.37
2018-10-11T17:13:08.829Z,27.70
2018-10-11T17:15:38.100Z,28.93
2018-10-11T17:18:07.451Z,30.40
2018-10-11T17:20:36.642Z,27.00
2018-10-11T17:23:06.835Z,26.73
2018-10-11T17:25:37.321Z,23.03
2018-10-11T17:28:08.673Z,20.43
2018-10-11T17:30:37.956Z,25.27
2018-10-11T17:33:07.484Z,23.23
2018-10-11T17:35:37.214Z,21.80
2018-10-11T17:38:06.774Z,22.93
2018-10-11T17:40:36.283Z,20.60
2018-10-11T17:43:07.543Z,24.80
2018-10-11T17:45:36.974Z,21.90
2018-10-11T17:48:06.413Z,22.77
2018-10-11T17:50:35.791Z,19.70
2018-10-11T17:53:07.389Z,20.13
2018-10-11T17:55:36.798Z,21.10
2018-10-11T17:58:06.159Z,22.17
2018-10-11T18:00:37.584Z,22.47
2018-10-11T18:03:07.171Z,16.73
2018-10-11T18:05:36.555Z,17.10
2018-10-11T18:08:09.535Z,16.93
2018-10-11T18:10:44.974Z,18.90
2018-10-11T18:13:15.590Z,17.47
2018-10-11T18:15:45.070Z,17.63
2018-10-11T18:18:15.338Z,20.07
2018-10-11T18:20:45.348Z,18.23
2018-10-11T18:23:17.996Z,15.77
2018-10-11T18:25:49.664Z,13.30
2018-10-11T18:28:21.031Z,19.03
2018-10-11T18:30:51.498Z,14.73
2018-10-11T18:33:21.784Z,13.57
2018-10-11T18:35:51.938Z,16.20
2018-10-11T18:38:21.214Z,18.97
2018-10-11T18:40:57.217Z,14.47
2018-10-11T18:43:26.543Z,16.50
2018-10-11T18:45:56.987Z,13.00
2018-10-11T18:48:27.321Z,18.03
2018-10-11T18:50:57.912Z,19.37
2018-10-11T18:53:27.304Z,12.63
2018-10-11T18:55:56.296Z,15.37
2018-10-11T18:58:25.283Z,17.07
2018-10-11T19:00:54.186Z,20.33
2018-10-11T19:03:23.072Z,18.47
2018-10-11T19:05:52.022Z,13.37
2018-10-11T19:08:20.951Z,16.82
2018-10-11T19:10:50.071Z,11.23
2018-10-11T19:13:20.350Z,20.70
2018-10-11T19:15:49.298Z,15.80
2018-10-11T19:18:19.484Z,15.10
2018-10-11T19:20:48.441Z,12.37
2018-10-11T19:23:17.382Z,16.03
2018-10-11T19:25:46.318Z,16.77
2018-10-11T19:28:15.212Z,13.80
2018-10-11T19:30:44.127Z,14.60
2018-10-11T19:33:13.180Z,15.63
2018-10-11T19:35:42.111Z,21.10
2018-10-11T19:38:11.044Z,17.17
2018-10-11T19:40:39.998Z,16.10
2018-10-11T19:43:09.011Z,15.70
2018-10-11T19:45:37.927Z,13.17
2018-10-11T19:48:07.055Z,12.60
2018-10-11T19:50:36.428Z,16.30
2018-10-11T19:53:05.744Z,8.90
2018-10-11T19:55:34.895Z,15.13
2018-10-11T19:58:04.072Z,9.00
2018-10-11T20:00:32.957Z,10.73
2018-10-11T20:03:02.069Z,10.87
2018-10-11T20:05:31.032Z,10.93
2018-10-11T20:08:00.290Z,15.90
2018-10-11T20:10:30.529Z,12.80
2018-10-11T20:12:59.555Z,12.70
2018-10-11T20:15:28.563Z,11.47
2018-10-11T20:17:57.475Z,12.50
2018-10-11T20:20:27.946Z,12.40
2018-10-11T20:22:56.899Z,14.37
2018-10-11T20:25:25.816Z,11.30
2018-10-11T20:27:56.036Z,15.50
2018-10-11T20:30:24.920Z,13.20
2018-10-11T20:32:53.882Z,13.43
2018-10-11T20:35:23.168Z,10.80
2018-10-11T20:37:52.077Z,10.27
2018-10-11T20:40:21.057Z,11.20
2018-10-11T20:42:51.254Z,12.67
2018-10-11T20:45:20.232Z,15.50
2018-10-11T20:47:49.165Z,13.70
2018-10-11T20:50:18.104Z,13.03
2018-10-11T20:52:46.956Z,12.50
2018-10-11T20:55:15.993Z,15.00
2018-10-11T20:57:46.265Z,10.23
2018-10-11T21:00:16.708Z,13.30
2018-10-11T21:02:45.922Z,8.00
2018-10-11T21:05:14.895Z,16.73
2018-10-11T21:07:43.750Z,14.70
2018-10-11T21:10:12.603Z,11.57
2018-10-11T21:12:41.581Z,13.03
2018-10-11T21:15:10.509Z,13.13
2018-10-11T21:17:39.595Z,12.57
2018-10-11T21:20:08.731Z,15.23
2018-10-11T21:22:37.563Z,13.07
2018-10-11T21:25:06.856Z,11.93
2018-10-11T21:27:35.894Z,15.37
2018-10-11T21:30:04.892Z,16.67
2018-10-11T21:32:33.901Z,12.00
2018-10-11T21:35:02.759Z,12.83
2018-10-11T21:37:31.892Z,12.80
2018-10-11T21:40:00.829Z,11.33
2018-10-11T21:42:29.795Z,14.80
2018-10-11T21:44:58.764Z,12.83
2018-10-11T21:47:27.704Z,8.53
2018-10-11T21:49:56.575Z,12.90
2018-10-11T21:52:25.534Z,12.20
2018-10-11T21:54:54.463Z,13.33
2018-10-11T21:57:23.491Z,14.10
2018-10-11T21:59:52.496Z,15.37
2018-10-11T22:02:21.375Z,12.40
2018-10-11T22:04:50.306Z,13.53
2018-10-11T22:07:19.366Z,13.77
2018-10-11T22:09:48.247Z,12.27
2018-10-11T22:12:17.180Z,15.37
2018-10-11T22:14:46.281Z,14.73
2018-10-11T22:17:15.196Z,14.23
2018-10-11T22:19:45.611Z,18.43
2018-10-11T22:22:14.660Z,14.87
2018-10-11T22:24:43.734Z,17.30
2018-10-11T22:27:12.989Z,13.57
2018-10-11T22:29:41.862Z,17.83
2018-10-11T22:32:11.128Z,13.67
2018-10-11T22:34:40.056Z,13.77
2018-10-11T22:37:09.052Z,16.20
2018-10-11T22:39:37.929Z,18.27
2018-10-11T22:42:06.929Z,17.20
2018-10-11T22:44:35.935Z,17.37
2018-10-11T22:47:04.899Z,18.30
2018-10-11T22:49:33.918Z,18.23
2018-10-11T22:52:02.829Z,19.53
2018-10-11T22:54:31.797Z,18.87
2018-10-11T22:57:00.798Z,19.93
2018-10-11T22:59:29.718Z,20.27
2018-10-11T23:01:58.659Z,17.97
2018-10-11T23:04:27.678Z,17.80
2018-10-11T23:06:56.758Z,22.27
2018-10-11T23:09:25.756Z,20.37
2018-10-11T23:11:54.731Z,21.47
2018-10-11T23:14:23.574Z,17.67
2018-10-11T23:16:52.530Z,20.57
2018-10-11T23:19:21.493Z,16.20
2018-10-11T23:21:50.349Z,22.53
2018-10-11T23:24:19.239Z,19.90
2018-10-11T23:26:48.174Z,20.63
2018-10-11T23:29:17.090Z,21.47
2018-10-11T23:31:46.027Z,20.87
2018-10-11T23:34:14.970Z,21.77
2018-10-11T23:36:43.968Z,24.47
2018-10-11T23:39:13.261Z,22.93
2018-10-11T23:41:42.701Z,22.17
2018-10-11T23:44:12.174Z,25.50
2018-10-11T23:46:41.048Z,19.83
2018-10-11T23:49:10.058Z,24.60
2018-10-11T23:51:38.951Z,20.33
2018-10-11T23:54:08.239Z,18.13
2018-10-11T23:56:37.130Z,18.43
2018-10-11T23:59:06.066Z,19.07
